Time;durP1;ratioP1;P1;durP2;ratioP2;P2;SDS_P1;SDS_P2;PMS_P1;PMS_P2;Temp;Humidity;BMP_temperature;BMP_pressure;BME280_temperature;BME280_humidity;BME280_pressure;Samples;Min_cycle;Max_cycle;Signal;HPM_P1;HPM_P2
2022/11/25 00:00:04;;;;;;;695.85;522.10;;;;;;;-1.54;100.00;98032.25;7381152;19;20010;-54
2022/11/25 00:02:49;;;;;;;675.38;504.48;;;;;;;-1.59;100.00;98034.06;7386837;19;20006;-54
2022/11/25 00:05:23;;;;;;;689.72;532.50;;;;;;;-1.55;100.00;98040.00;7388889;19;20521;-54
2022/11/25 00:07:57;;;;;;;647.83;494.10;;;;;;;-1.54;100.00;98031.41;7393801;19;20014;-50
2022/11/25 00:10:31;;;;;;;639.38;491.73;;;;;;;-1.55;100.00;98029.69;7390324;19;20419;-61
2022/11/25 00:13:07;;;;;;;638.42;494.05;;;;;;;-1.59;100.00;98034.06;7394626;19;20031;-54
2022/11/25 00:15:41;;;;;;;596.03;463.85;;;;;;;-1.62;100.00;98033.25;7393532;19;20462;-54
2022/11/25 00:18:15;;;;;;;592.13;465.42;;;;;;;-1.56;100.00;98038.31;7388946;19;20457;-56
2022/11/25 00:20:48;;;;;;;460.25;391.73;;;;;;;-1.55;100.00;98024.53;7393728;19;20031;-50
2022/11/25 00:23:22;;;;;;;412.13;366.85;;;;;;;-1.43;100.00;98025.22;7388897;19;20492;-57
2022/11/25 00:26:00;;;;;;;354.38;318.77;;;;;;;-1.35;100.00;98025.09;7391464;19;20081;-53
2022/11/25 00:28:37;;;;;;;351.63;315.98;;;;;;;-1.58;100.00;98012.56;7393967;19;20022;-49
2022/11/25 00:31:17;;;;;;;331.45;297.05;;;;;;;-1.60;100.00;98018.63;7391348;19;20017;-54
2022/11/25 00:33:52;;;;;;;331.55;297.33;;;;;;;-1.33;100.00;98020.75;7391330;19;20011;-58
2022/11/25 00:36:31;;;;;;;344.15;308.40;;;;;;;-1.55;100.00;98020.25;7391174;19;20014;-50
2022/11/25 00:39:07;;;;;;;325.15;290.92;;;;;;;-1.52;100.00;98020.22;7390213;19;20074;-51
2022/11/25 00:44:39;;;;;;;358.92;322.38;;;;;;;-1.60;100.00;98019.44;7390874;19;20052;-62
2022/11/25 00:47:16;;;;;;;362.60;325.77;;;;;;;-1.54;100.00;98021.94;7389927;19;20018;-55
2022/11/25 00:49:52;;;;;;;364.67;328.30;;;;;;;-1.51;100.00;98021.91;7392088;19;20015;-49
2022/11/25 00:52:29;;;;;;;353.42;316.25;;;;;;;-1.49;100.00;98019.31;7384307;19;20015;-49
2022/11/25 00:55:03;;;;;;;325.02;290.52;;;;;;;-1.51;100.00;98027.06;7387338;19;20477;-50
2022/11/25 00:57:37;;;;;;;338.05;301.95;;;;;;;-1.54;100.00;98023.66;7386169;19;20010;-52
2022/11/25 01:00:19;;;;;;;331.05;295.88;;;;;;;-1.27;100.00;98028.41;7387176;19;20013;-49
2022/11/25 01:02:54;;;;;;;339.35;304.38;;;;;;;-1.47;100.00;98023.56;7389858;19;20502;-58
2022/11/25 01:05:28;;;;;;;345.95;310.40;;;;;;;-1.28;100.00;98030.13;7387667;19;20362;-50
2022/11/25 01:08:03;;;;;;;350.63;314.88;;;;;;;-1.32;100.00;98025.03;7393388;19;20014;-50
2022/11/25 01:10:37;;;;;;;362.52;324.85;;;;;;;-1.28;100.00;98024.97;7384122;19;20015;-50
2022/11/25 01:13:10;;;;;;;343.60;308.13;;;;;;;-1.35;100.00;98018.19;7390517;19;20044;-49
2022/11/25 01:15:47;;;;;;;350.42;314.55;;;;;;;-1.34;100.00;98024.22;7387000;19;20436;-67
2022/11/25 01:18:21;;;;;;;345.65;310.42;;;;;;;-1.42;100.00;98016.59;7392055;19;20015;-50
2022/11/25 01:21:00;;;;;;;341.38;305.85;;;;;;;-1.04;100.00;98011.66;7390071;19;20003;-65
2022/11/25 01:23:35;;;;;;;350.17;314.30;;;;;;;-1.16;100.00;98022.16;7390133;19;20018;-48
2022/11/25 01:26:11;;;;;;;334.00;299.42;;;;;;;-1.09;100.00;98020.34;7391796;19;20478;-50
2022/11/25 01:28:46;;;;;;;353.00;315.70;;;;;;;-1.03;100.00;98021.09;7384926;19;20042;-49
2022/11/25 01:31:24;;;;;;;343.52;307.58;;;;;;;-1.05;100.00;98015.09;7388536;19;20027;-48
2022/11/25 01:34:02;;;;;;;372.77;334.23;;;;;;;-1.16;100.00;98026.50;7384780;19;20017;-48
2022/11/25 01:36:35;;;;;;;348.58;313.40;;;;;;;-1.08;100.00;98017.72;7390536;19;20017;-49
2022/11/25 01:39:10;;;;;;;344.45;309.25;;;;;;;-1.15;100.00;98025.59;7387538;19;20014;-45
2022/11/25 01:41:47;;;;;;;399.25;355.48;;;;;;;-1.03;100.00;98025.38;7391302;19;20836;-52
2022/11/25 01:44:24;;;;;;;394.27;346.27;;;;;;;-1.30;100.00;98031.88;7391069;19;20014;-49
2022/11/25 01:47:07;;;;;;;357.63;319.77;;;;;;;-1.08;100.00;98033.19;7385273;19;21591;-48
2022/11/25 01:49:47;;;;;;;342.55;307.85;;;;;;;-0.83;100.00;98028.47;7385397;19;20034;-49
2022/11/25 01:52:27;;;;;;;360.10;320.95;;;;;;;-0.99;100.00;98025.31;7384289;19;20014;-51
2022/11/25 01:55:07;;;;;;;647.78;488.05;;;;;;;-1.05;100.00;98020.25;7383764;19;20014;-51
2022/11/25 01:57:46;;;;;;;685.17;523.83;;;;;;;-0.90;100.00;98027.72;7381127;19;20011;-48
2022/11/25 02:00:21;;;;;;;674.88;507.73;;;;;;;-1.11;100.00;98035.84;7384070;19;20525;-46
2022/11/25 02:03:01;;;;;;;678.63;512.63;;;;;;;-1.30;100.00;98036.19;7381627;19;20010;-51
2022/11/25 02:05:44;;;;;;;675.28;504.35;;;;;;;-1.40;100.00;98030.31;7388582;19;20501;-51
2022/11/25 02:08:19;;;;;;;680.80;516.55;;;;;;;-1.16;100.00;98026.50;7379582;19;20022;-47
2022/11/25 02:10:54;;;;;;;653.53;487.00;;;;;;;-1.14;100.00;98027.28;7386112;19;20021;-50
2022/11/25 02:13:29;;;;;;;648.85;486.65;;;;;;;-1.02;100.00;98024.50;7385150;19;20015;-59
2022/11/25 02:16:03;;;;;;;663.22;499.77;;;;;;;-0.93;100.00;98017.47;7386876;19;20339;-52
2022/11/25 02:18:40;;;;;;;635.58;487.25;;;;;;;-1.26;100.00;98023.22;7388425;19;20066;-47
2022/11/25 02:21:15;;;;;;;638.67;491.02;;;;;;;-1.06;100.00;98031.47;7385074;19;20014;-51
2022/11/25 02:24:01;;;;;;;487.73;414.55;;;;;;;-1.05;100.00;98028.00;7386541;19;20010;-52
2022/11/25 02:26:38;;;;;;;405.95;361.85;;;;;;;-0.89;100.00;98020.84;7381005;19;20023;-49
2022/11/25 02:29:15;;;;;;;367.77;329.83;;;;;;;-1.16;100.00;98040.22;7385148;19;20010;-48
2022/11/25 02:31:54;;;;;;;366.88;328.00;;;;;;;-0.88;100.00;98038.00;7379280;19;20037;-53
2022/11/25 02:34:28;;;;;;;356.92;320.13;;;;;;;-0.81;100.00;98032.72;7384947;19;20010;-48
2022/11/25 02:37:06;;;;;;;357.83;319.23;;;;;;;-1.14;100.00;98035.91;7379229;19;20407;-48
2022/11/25 02:39:47;;;;;;;345.23;308.67;;;;;;;-1.14;100.00;98043.63;7384360;19;20007;-51
2022/11/25 02:42:25;;;;;;;371.85;332.58;;;;;;;-1.08;100.00;98046.09;7384022;19;20352;-61
2022/11/25 02:45:00;;;;;;;369.52;331.17;;;;;;;-0.93;100.00;98042.41;7382327;19;20038;-50
2022/11/25 02:47:34;;;;;;;372.73;334.23;;;;;;;-1.18;100.00;98052.31;7228631;19;3072433;-51
2022/11/25 02:50:07;;;;;;;370.05;331.45;;;;;;;-1.18;100.00;98054.03;7384911;19;20462;-49
2022/11/25 02:52:41;;;;;;;358.65;321.13;;;;;;;-0.99;100.00;98048.53;7388446;19;20461;-51
2022/11/25 02:55:17;;;;;;;355.10;316.67;;;;;;;-0.97;100.00;98057.09;7379394;19;20373;-53
2022/11/25 02:57:55;;;;;;;352.60;315.27;;;;;;;-1.22;100.00;98060.97;7384969;19;20166;-48
2022/11/25 03:00:30;;;;;;;363.88;325.85;;;;;;;-1.04;100.00;98049.50;7381191;19;20007;-60
2022/11/25 03:03:06;;;;;;;363.63;325.27;;;;;;;-1.26;100.00;98056.75;7385708;19;20010;-51
2022/11/25 03:05:40;;;;;;;382.67;343.15;;;;;;;-1.09;100.00;98065.03;7386984;19;20014;-51
2022/11/25 03:08:15;;;;;;;390.98;349.40;;;;;;;-1.24;100.00;98067.00;7382295;19;20024;-49
2022/11/25 03:10:49;;;;;;;367.30;330.30;;;;;;;-1.07;100.00;98063.31;7386287;19;20202;-57
2022/11/25 03:13:29;;;;;;;386.88;347.08;;;;;;;-1.25;100.00;98068.75;7379586;19;20007;-49
2022/11/25 03:16:04;;;;;;;368.65;331.65;;;;;;;-1.19;100.00;98066.06;7385883;19;20018;-52
2022/11/25 03:18:37;;;;;;;363.48;326.30;;;;;;;-1.31;100.00;98065.44;7384855;19;20010;-60
2022/11/25 03:21:11;;;;;;;372.98;333.88;;;;;;;-1.25;100.00;98065.31;7383962;19;20018;-50
2022/11/25 03:23:45;;;;;;;368.63;330.52;;;;;;;-1.23;100.00;98074.72;7387208;19;20486;-52
2022/11/25 03:26:19;;;;;;;388.58;347.60;;;;;;;-1.06;100.00;98065.00;7381470;19;20478;-50
2022/11/25 03:28:55;;;;;;;379.10;340.23;;;;;;;-1.02;100.00;98064.06;7385505;19;20007;-53
2022/11/25 03:31:30;;;;;;;379.55;340.40;;;;;;;-1.22;100.00;98066.13;7382951;19;20019;-52
2022/11/25 03:34:04;;;;;;;368.38;330.27;;;;;;;-0.95;100.00;98065.66;7384986;19;20010;-51
2022/11/25 03:36:41;;;;;;;360.77;322.63;;;;;;;-1.26;100.00;98069.66;7384616;19;20473;-50
2022/11/25 03:39:16;;;;;;;395.45;354.23;;;;;;;-1.13;100.00;98073.72;7381957;19;21074;-51
2022/11/25 03:41:49;;;;;;;378.50;339.17;;;;;;;-1.24;100.00;98077.34;7385059;19;20327;-54
2022/11/25 03:44:29;;;;;;;390.80;349.85;;;;;;;-1.15;100.00;98078.06;7379394;19;20015;-51
2022/11/25 03:47:03;;;;;;;386.80;347.25;;;;;;;-1.24;100.00;98080.78;7383855;19;20034;-51
2022/11/25 03:49:37;;;;;;;417.00;371.20;;;;;;;-1.18;100.00;98084.97;7384686;19;20473;-51
2022/11/25 03:52:11;;;;;;;354.75;317.10;;;;;;;-1.24;100.00;98080.78;7384505;19;20010;-50
2022/11/25 03:54:45;;;;;;;531.95;448.15;;;;;;;-1.17;100.00;98086.69;7382507;19;20023;-53
2022/11/25 03:57:27;;;;;;;529.60;445.50;;;;;;;-0.98;100.00;98086.38;7382299;19;20016;-51
2022/11/25 04:00:03;;;;;;;523.72;436.80;;;;;;;-1.16;100.00;98086.66;7383214;19;20466;-52
2022/11/25 04:02:51;;;;;;;601.65;462.10;;;;;;;-1.27;100.00;98078.22;7386786;19;20051;-55
2022/11/25 04:05:26;;;;;;;363.17;324.75;;;;;;;-1.10;100.00;98089.16;7384909;19;20015;-48
2022/11/25 04:08:04;;;;;;;379.65;338.90;;;;;;;-0.88;100.00;98085.34;7378383;19;20382;-49
2022/11/25 04:10:42;;;;;;;500.73;425.10;;;;;;;-0.79;100.00;98087.75;7384313;19;20087;-53
2022/11/25 04:13:15;;;;;;;461.98;401.73;;;;;;;-0.79;100.00;98085.16;7378280;19;20354;-50
2022/11/25 04:15:57;;;;;;;444.55;386.50;;;;;;;-0.95;100.00;98091.47;7384734;19;20361;-53
2022/11/25 04:18:31;;;;;;;454.88;397.65;;;;;;;-0.92;100.00;98090.56;7381674;19;20018;-59
2022/11/25 04:21:07;;;;;;;351.45;314.48;;;;;;;-1.13;100.00;98091.78;7382968;19;20017;-52
2022/11/25 04:23:41;;;;;;;350.95;314.50;;;;;;;-1.09;100.00;98090.00;7384088;19;20082;-52
2022/11/25 04:26:19;;;;;;;375.52;334.40;;;;;;;-1.04;100.00;98091.66;7380287;19;20015;-52
2022/11/25 04:28:52;;;;;;;628.30;483.95;;;;;;;-1.16;100.00;98093.56;7386240;19;20015;-53
2022/11/25 04:31:29;;;;;;;659.95;508.42;;;;;;;-1.04;100.00;98091.66;7377856;19;20014;-58
2022/11/25 04:34:03;;;;;;;689.63;532.55;;;;;;;-1.03;100.00;98085.59;7386114;19;20066;-49
2022/11/25 04:36:37;;;;;;;689.33;529.22;;;;;;;-1.18;100.00;98090.16;7385212;19;20066;-53
2022/11/25 04:39:12;;;;;;;691.60;525.72;;;;;;;-1.08;100.00;98095.13;7382481;19;20128;-52
2022/11/25 04:41:45;;;;;;;689.83;528.03;;;;;;;-1.15;100.00;98092.69;7383310;19;20069;-53
2022/11/25 04:44:21;;;;;;;691.47;526.75;;;;;;;-1.11;100.00;98102.06;7378670;19;20015;-48
2022/11/25 04:46:58;;;;;;;660.83;505.98;;;;;;;-1.13;100.00;98111.56;7382450;19;20027;-52
2022/11/25 04:49:32;;;;;;;637.45;478.67;;;;;;;-0.99;100.00;98113.06;7383465;19;20039;-60
2022/11/25 04:52:05;;;;;;;590.03;475.33;;;;;;;-1.16;100.00;98104.72;7391369;19;20377;-52
2022/11/25 04:54:39;;;;;;;362.00;324.05;;;;;;;-0.86;100.00;98119.69;7387189;19;20498;-56
2022/11/25 04:57:12;;;;;;;387.92;347.45;;;;;;;-0.94;100.00;98116.41;7387153;19;20022;-53
2022/11/25 04:59:47;;;;;;;367.15;329.17;;;;;;;-1.18;100.00;98121.97;7390043;19;20014;-52
2022/11/25 05:02:26;;;;;;;351.17;314.95;;;;;;;-1.05;100.00;98123.47;7384330;19;20028;-61
2022/11/25 05:05:20;;;;;;;355.50;319.17;;;;;;;-1.15;100.00;98124.50;7387237;19;20375;-56
2022/11/25 05:07:54;;;;;;;383.95;345.00;;;;;;;-1.06;100.00;98124.34;7386643;19;20480;-52
2022/11/25 05:10:29;;;;;;;346.90;310.92;;;;;;;-1.20;100.00;98125.44;7388421;19;20030;-49
2022/11/25 05:13:06;;;;;;;359.67;322.33;;;;;;;-1.12;100.00;98133.91;7385269;19;20013;-61
2022/11/25 05:15:39;;;;;;;375.65;336.30;;;;;;;-1.20;100.00;98131.44;7389596;19;20007;-60
2022/11/25 05:18:18;;;;;;;358.10;320.25;;;;;;;-1.12;100.00;98133.91;7389635;19;20006;-49
2022/11/25 05:20:52;;;;;;;395.60;354.73;;;;;;;-1.05;100.00;98131.19;7386907;19;21131;-56
2022/11/25 05:23:28;;;;;;;395.60;355.02;;;;;;;-1.20;100.00;98126.28;7388843;19;20006;-52
2022/11/25 05:26:05;;;;;;;395.60;354.60;;;;;;;-1.11;100.00;98136.47;7383623;19;20015;-48
2022/11/25 05:28:49;;;;;;;378.15;340.00;;;;;;;-1.17;100.00;98139.13;7389230;19;20385;-52
2022/11/25 05:31:23;;;;;;;378.38;338.95;;;;;;;-1.14;100.00;98143.41;7384198;19;20339;-54
2022/11/25 05:34:00;;;;;;;371.10;332.75;;;;;;;-1.10;100.00;98138.19;7386316;19;20021;-53
2022/11/25 05:36:34;;;;;;;391.00;350.17;;;;;;;-1.04;100.00;98150.13;7388156;19;20011;-56
2022/11/25 05:39:08;;;;;;;375.25;334.38;;;;;;;-1.04;100.00;98142.38;7391190;19;20015;-54
2022/11/25 05:42:02;;;;;;;389.55;348.55;;;;;;;-0.97;100.00;98146.59;7383258;19;20055;-55
2022/11/25 05:44:35;;;;;;;366.92;328.70;;;;;;;-1.09;100.00;98155.34;7389604;19;20043;-54
2022/11/25 05:47:09;;;;;;;403.02;362.63;;;;;;;-1.04;100.00;98153.56;7386011;19;20002;-53
2022/11/25 05:49:47;;;;;;;425.00;381.85;;;;;;;-0.92;100.00;98153.38;7382614;19;20042;-52
2022/11/25 05:52:21;;;;;;;390.52;350.83;;;;;;;-1.00;100.00;98156.94;7388866;19;20070;-53
2022/11/25 05:55:00;;;;;;;432.05;388.63;;;;;;;-0.91;100.00;98155.06;7379901;19;20021;-53
2022/11/25 05:57:34;;;;;;;427.05;383.42;;;;;;;-0.54;100.00;98161.31;7388305;19;20015;-53
2022/11/25 06:00:16;;;;;;;423.67;378.70;;;;;;;-0.87;100.00;98163.63;7380069;19;20465;-51
2022/11/25 06:02:56;;;;;;;395.52;355.05;;;;;;;-0.79;100.00;98162.59;7386761;19;20023;-53
2022/11/25 06:05:33;;;;;;;428.55;382.55;;;;;;;-0.80;100.00;98173.81;7383876;19;20026;-61
2022/11/25 06:08:08;;;;;;;403.42;358.88;;;;;;;-0.69;100.00;98171.06;7387409;19;20011;-50
2022/11/25 06:10:45;;;;;;;406.20;361.17;;;;;;;-142.06;100.00;58987.19;7386989;19;20032;-56
2022/11/25 06:13:19;;;;;;;496.85;431.63;;;;;;;-142.06;100.00;58987.19;7388695;19;20007;-51
2022/11/25 06:15:53;;;;;;;396.73;354.55;;;;;;;-142.06;100.00;58987.19;7387904;19;20007;-54
2022/11/25 06:18:29;;;;;;;413.23;370.00;;;;;;;-142.06;100.00;58987.19;7381699;19;20010;-54
2022/11/25 06:21:06;;;;;;;491.63;434.55;;;;;;;-142.06;100.00;58987.19;7385554;19;20021;-53
2022/11/25 06:23:43;;;;;;;439.88;391.52;;;;;;;-142.06;100.00;58987.19;7384944;19;20018;-59
2022/11/25 06:26:23;;;;;;;475.08;417.00;;;;;;;-142.06;100.00;58987.19;7387520;19;20092;-50
2022/11/25 06:29:01;;;;;;;442.88;394.85;;;;;;;-142.06;100.00;58987.19;7386608;19;20010;-60
2022/11/25 06:31:34;;;;;;;386.52;344.13;;;;;;;-142.06;100.00;58987.19;7387601;19;20351;-52
2022/11/25 06:34:43;;;;;;;373.80;334.92;;;;;;;-142.06;100.00;58987.19;7387075;19;20018;-53
2022/11/25 06:37:55;;;;;;;374.95;335.27;;;;;;;-142.06;100.00;58987.19;7383486;19;20461;-51
2022/11/25 06:40:34;;;;;;;371.00;332.95;;;;;;;-142.06;100.00;58987.19;7387486;19;20018;-52
2022/11/25 06:43:10;;;;;;;380.52;341.15;;;;;;;-142.06;100.00;58987.19;7382577;19;20011;-52
2022/11/25 06:45:44;;;;;;;370.75;333.05;;;;;;;-142.06;100.00;58987.19;7389129;19;20041;-53
2022/11/25 06:48:18;;;;;;;380.85;341.92;;;;;;;-142.06;100.00;58987.19;7380993;19;20025;-52
2022/11/25 06:51:01;;;;;;;380.85;341.45;;;;;;;-142.06;100.00;58987.19;7378544;19;20022;-54
2022/11/25 06:53:38;;;;;;;388.67;347.90;;;;;;;-142.06;100.00;58987.19;7378287;19;20011;-61
2022/11/25 06:56:18;;;;;;;440.67;396.45;;;;;;;-142.06;100.00;58987.19;7383991;19;20010;-51
2022/11/25 06:58:54;;;;;;;442.50;398.20;;;;;;;-142.06;100.00;58987.19;7387272;19;20020;-54
2022/11/25 07:01:29;;;;;;;429.38;386.30;;;;;;;-142.06;100.00;58987.19;7386041;19;20405;-54
2022/11/25 07:04:06;;;;;;;420.85;377.45;;;;;;;-142.06;100.00;58987.19;7387093;19;20014;-52
2022/11/25 07:06:40;;;;;;;453.35;407.60;;;;;;;-142.06;100.00;58987.19;7382602;19;20011;-56
2022/11/25 07:09:18;;;;;;;420.13;377.58;;;;;;;-142.06;100.00;58987.19;7388573;19;20472;-53
2022/11/25 07:11:52;;;;;;;424.60;380.95;;;;;;;-142.06;100.00;58987.19;7382130;19;21114;-51
2022/11/25 07:14:25;;;;;;;417.70;375.60;;;;;;;-142.06;100.00;58987.19;7387329;19;20022;-51
2022/11/25 07:16:59;;;;;;;414.00;372.38;;;;;;;-142.06;100.00;58987.19;7386295;19;20321;-54
2022/11/25 07:19:35;;;;;;;432.92;389.70;;;;;;;-142.06;100.00;58987.19;7386099;19;20539;-57
2022/11/25 07:22:08;;;;;;;421.42;378.85;;;;;;;-142.06;100.00;58987.19;7386993;19;20015;-53
2022/11/25 07:24:45;;;;;;;426.13;382.80;;;;;;;-142.06;100.00;58987.19;7382897;19;20476;-52
2022/11/25 07:27:18;;;;;;;405.73;365.10;;;;;;;-142.06;100.00;58987.19;7387230;19;20014;-54
2022/11/25 07:29:55;;;;;;;412.23;369.45;;;;;;;-142.06;100.00;58987.19;7389084;19;20010;-53
2022/11/25 07:32:28;;;;;;;555.22;494.73;;;;;;;-142.06;100.00;58987.19;7387644;19;20011;-54
2022/11/25 07:35:02;;;;;;;558.53;498.05;;;;;;;-142.06;100.00;58987.19;7387320;19;20015;-52
2022/11/25 07:37:36;;;;;;;559.00;498.92;;;;;;;-142.06;100.00;58987.19;7379536;19;20014;-55
2022/11/25 07:40:14;;;;;;;543.75;485.05;;;;;;;-142.06;100.00;58987.19;7386572;19;20006;-57
2022/11/25 07:42:47;;;;;;;538.92;480.95;;;;;;;-142.06;100.00;58987.19;7381820;19;20007;-56
2022/11/25 07:45:23;;;;;;;525.95;467.90;;;;;;;-142.06;100.00;58987.19;7384717;19;20006;-55
2022/11/25 07:48:01;;;;;;;526.58;468.85;;;;;;;-142.06;100.00;58987.19;7382709;19;20061;-53
2022/11/25 07:50:35;;;;;;;534.45;475.20;;;;;;;-142.06;100.00;58987.19;7386517;19;20384;-53
2022/11/25 07:53:08;;;;;;;525.45;467.42;;;;;;;-142.06;100.00;58987.19;7386689;19;20021;-52
2022/11/25 07:55:44;;;;;;;544.50;481.95;;;;;;;-142.06;100.00;58987.19;7379246;19;20525;-53
2022/11/25 07:58:17;;;;;;;483.27;431.88;;;;;;;-142.06;100.00;58987.19;7384036;19;20036;-54
2022/11/25 08:00:51;;;;;;;427.55;383.45;;;;;;;-142.06;100.00;58987.19;7383205;19;20041;-55
2022/11/25 08:03:25;;;;;;;436.38;392.23;;;;;;;-142.06;100.00;58987.19;7378905;19;20011;-56
2022/11/25 08:05:58;;;;;;;431.17;387.48;;;;;;;-142.06;100.00;58987.19;7385336;19;20014;-53
2022/11/25 08:08:32;;;;;;;421.60;378.13;;;;;;;-142.06;100.00;58987.19;7377954;19;20078;-55
2022/11/25 08:11:12;;;;;;;397.20;356.15;;;;;;;-142.06;100.00;58987.19;7379424;19;20018;-54
2022/11/25 08:13:46;;;;;;;384.83;344.98;;;;;;;-142.06;100.00;58987.19;7380633;19;20474;-60
2022/11/25 08:16:22;;;;;;;392.27;351.45;;;;;;;-142.06;100.00;58987.19;7387050;19;20038;-54
2022/11/25 08:18:56;;;;;;;406.60;364.08;;;;;;;-142.06;100.00;58987.19;7385311;19;20014;-53
2022/11/25 08:21:31;;;;;;;419.75;375.73;;;;;;;-142.06;100.00;58987.19;7379512;19;20018;-56
2022/11/25 08:24:05;;;;;;;415.75;374.45;;;;;;;-142.06;100.00;58987.19;7385819;19;20010;-56
2022/11/25 08:26:42;;;;;;;408.13;366.10;;;;;;;-142.06;100.00;58987.19;7388924;19;20473;-60
2022/11/25 08:29:20;;;;;;;405.40;363.92;;;;;;;-142.06;100.00;58987.19;7390636;19;20383;-56
2022/11/25 08:31:54;;;;;;;424.80;381.60;;;;;;;-142.06;100.00;58987.19;7393093;19;20014;-53
2022/11/25 08:34:30;;;;;;;411.17;368.77;;;;;;;-142.06;100.00;58987.19;7390325;19;20023;-53
2022/11/25 08:37:08;;;;;;;401.30;360.08;;;;;;;-142.06;100.00;58987.19;7391560;19;20014;-53
2022/11/25 08:39:42;;;;;;;405.30;363.35;;;;;;;-142.06;100.00;58987.19;7390620;19;20010;-54
2022/11/25 08:42:19;;;;;;;425.58;383.17;;;;;;;-142.06;100.00;58987.19;7388846;19;20366;-53
2022/11/25 08:44:58;;;;;;;426.33;381.75;;;;;;;-142.06;100.00;58987.19;7386693;19;20006;-55
2022/11/25 08:47:32;;;;;;;442.50;398.08;;;;;;;-142.06;100.00;58987.19;7391168;19;20362;-52
2022/11/25 08:50:05;;;;;;;422.77;380.45;;;;;;;-142.06;100.00;58987.19;7391389;19;20010;-61
2022/11/25 08:52:39;;;;;;;434.40;390.65;;;;;;;-142.06;100.00;58987.19;7392660;19;20011;-57
2022/11/25 08:55:16;;;;;;;437.65;394.33;;;;;;;-142.06;100.00;58987.19;7391450;19;20010;-55
2022/11/25 08:57:53;;;;;;;436.33;392.45;;;;;;;-142.06;100.00;58987.19;7385956;19;20461;-54
2022/11/25 09:00:28;;;;;;;424.30;381.95;;;;;;;-142.06;100.00;58987.19;7391541;19;20349;-54
2022/11/25 09:03:02;;;;;;;441.23;396.38;;;;;;;-142.06;100.00;58987.19;7383862;19;20403;-56
2022/11/25 09:05:36;;;;;;;405.55;364.70;;;;;;;-142.06;100.00;58987.19;7392869;19;20018;-55
2022/11/25 09:08:11;;;;;;;424.23;381.70;;;;;;;-142.06;100.00;58987.19;7392143;19;20007;-56
2022/11/25 09:10:46;;;;;;;418.33;374.98;;;;;;;-142.06;100.00;58987.19;7390596;19;20470;-55
2022/11/25 09:13:23;;;;;;;432.27;387.13;;;;;;;-142.06;100.00;58987.19;7392511;19;20045;-55
2022/11/25 09:15:57;;;;;;;445.27;399.00;;;;;;;-142.06;100.00;58987.19;7379994;19;20014;-55
2022/11/25 09:18:31;;;;;;;476.55;428.42;;;;;;;-142.06;100.00;58987.19;7384294;19;20002;-55
2022/11/25 09:21:05;;;;;;;422.27;380.05;;;;;;;-142.06;100.00;58987.19;7385478;19;20017;-54
2022/11/25 09:23:42;;;;;;;410.58;368.58;;;;;;;-142.06;100.00;58987.19;7387893;19;20477;-51
2022/11/25 09:26:26;;;;;;;439.20;393.50;;;;;;;-142.06;100.00;58987.19;7386938;19;20007;-51
2022/11/25 09:29:03;;;;;;;426.83;382.30;;;;;;;-142.06;100.00;58987.19;7385743;19;20522;-55
2022/11/25 09:31:37;;;;;;;420.40;377.85;;;;;;;-142.06;100.00;58987.19;7385379;19;20025;-54
2022/11/25 09:34:10;;;;;;;402.20;360.75;;;;;;;-142.06;100.00;58987.19;7380648;19;20055;-53
2022/11/25 09:36:44;;;;;;;397.55;357.60;;;;;;;-142.06;100.00;58987.19;7387116;19;20014;-55
2022/11/25 09:39:26;;;;;;;419.35;377.25;;;;;;;-142.06;100.00;58987.19;7383353;19;20526;-55
2022/11/25 09:48:27;;;;;;;393.52;354.20;;;;;;;-142.06;100.00;58987.19;7382657;19;20512;-57
2022/11/25 09:51:11;;;;;;;398.65;358.55;;;;;;;-142.06;100.00;58987.19;7386804;19;20027;-52
2022/11/25 09:53:50;;;;;;;420.77;377.65;;;;;;;-142.06;100.00;58987.19;7383987;19;20458;-56
2022/11/25 09:56:34;;;;;;;403.98;362.17;;;;;;;-142.06;100.00;58987.19;7382526;19;20015;-60
2022/11/25 09:59:16;;;;;;;407.45;364.50;;;;;;;-142.06;100.00;58987.19;7384619;19;20011;-48
2022/11/25 10:01:58;;;;;;;413.95;372.38;;;;;;;-142.06;100.00;58987.19;7378781;19;20057;-50
2022/11/25 10:04:38;;;;;;;406.33;365.17;;;;;;;-142.06;100.00;58987.19;7385058;19;20007;-50
2022/11/25 10:07:23;;;;;;;445.02;400.10;;;;;;;-142.06;100.00;58987.19;7380135;19;20572;-54
2022/11/25 10:09:59;;;;;;;421.65;378.48;;;;;;;-142.06;100.00;58987.19;7381925;19;20018;-51
2022/11/25 10:12:36;;;;;;;418.63;375.90;;;;;;;-142.06;100.00;58987.19;7376289;19;20644;-51
2022/11/25 10:15:13;;;;;;;405.38;363.42;;;;;;;-142.06;100.00;58987.19;7376550;19;20010;-54
2022/11/25 10:17:54;;;;;;;427.90;384.27;;;;;;;-142.06;100.00;58987.19;7377583;19;20053;-51
2022/11/25 10:20:32;;;;;;;426.35;383.60;;;;;;;-142.06;100.00;58987.19;7378235;19;20014;-55
2022/11/25 10:23:09;;;;;;;432.38;389.08;;;;;;;-142.06;100.00;58987.19;7378401;19;20010;-53
2022/11/25 10:25:47;;;;;;;420.52;377.50;;;;;;;-142.06;100.00;58987.19;7385602;19;20452;-51
2022/11/25 10:28:27;;;;;;;417.38;375.35;;;;;;;-142.06;100.00;58987.19;7383437;19;20010;-52
2022/11/25 10:31:06;;;;;;;405.73;364.42;;;;;;;-142.06;100.00;58987.19;7382978;19;20482;-50
2022/11/25 10:33:49;;;;;;;402.15;361.48;;;;;;;-142.06;100.00;58987.19;7383134;19;20042;-52
2022/11/25 10:36:26;;;;;;;410.08;369.65;;;;;;;-142.06;100.00;58987.19;7383232;19;20025;-48
2022/11/25 10:39:06;;;;;;;415.67;374.75;;;;;;;-142.06;100.00;58987.19;7383526;19;20011;-53
2022/11/25 10:41:49;;;;;;;413.25;371.52;;;;;;;-142.06;100.00;58987.19;7383179;19;20026;-56
2022/11/25 10:44:31;;;;;;;421.42;378.85;;;;;;;-142.06;100.00;58987.19;7384503;19;20014;-49
2022/11/25 10:47:19;;;;;;;399.85;359.30;;;;;;;-142.06;100.00;58987.19;7383403;19;20457;-51
2022/11/25 10:50:05;;;;;;;398.33;358.58;;;;;;;-142.06;100.00;58987.19;7382684;19;20007;-57
2022/11/25 10:52:44;;;;;;;409.63;369.33;;;;;;;-142.06;100.00;58987.19;7385687;19;20468;-48
2022/11/25 10:55:23;;;;;;;424.70;381.85;;;;;;;-142.06;100.00;58987.19;7379972;19;20011;-55
2022/11/25 10:57:57;;;;;;;419.80;377.02;;;;;;;-142.06;100.00;58987.19;7385803;19;20021;-56
2022/11/25 11:00:37;;;;;;;415.58;372.80;;;;;;;-142.06;100.00;58987.19;7383938;19;20007;-53
2022/11/25 11:03:21;;;;;;;398.33;357.85;;;;;;;-142.06;100.00;58987.19;7381294;19;20026;-51
2022/11/25 11:06:00;;;;;;;415.23;372.55;;;;;;;-142.06;100.00;58987.19;7378985;19;20501;-51
2022/11/25 11:08:43;;;;;;;393.88;352.95;;;;;;;-142.06;100.00;58987.19;7383415;19;20071;-53
2022/11/25 11:11:24;;;;;;;419.95;376.63;;;;;;;-142.06;100.00;58987.19;7379271;19;20014;-57
2022/11/25 11:14:05;;;;;;;413.17;370.83;;;;;;;-142.06;100.00;58987.19;7383966;19;20011;-51
2022/11/25 11:16:45;;;;;;;425.75;383.05;;;;;;;-142.06;100.00;58987.19;7381606;19;20047;-61
2022/11/25 11:19:30;;;;;;;425.75;382.67;;;;;;;-142.06;100.00;58987.19;7382177;19;20025;-51
2022/11/25 11:22:22;;;;;;;;;;;;;;;-142.06;100.00;58987.19;7378330;19;20018;-50
2022/11/25 11:25:12;;;;;;;407.10;364.90;;;;;;;-142.06;100.00;58987.19;7379792;19;20323;-50
2022/11/25 11:27:48;;;;;;;419.25;375.33;;;;;;;-142.06;100.00;58987.19;7378847;19;20498;-49
2022/11/25 11:30:27;;;;;;;421.45;377.63;;;;;;;-142.06;100.00;58987.19;7385172;19;20469;-49
2022/11/25 11:33:05;;;;;;;427.67;383.55;;;;;;;-142.06;100.00;58987.19;7386072;19;20010;-55
2022/11/25 11:35:56;;;;;;;413.88;372.00;;;;;;;-142.06;100.00;58987.19;7385191;19;20014;-50
2022/11/25 11:38:39;;;;;;;400.98;358.58;;;;;;;-142.06;100.00;58987.19;7384944;19;20018;-53